sensor_id;sensor_type;location;lat;lon;timestamp;P1;durP1;ratioP1;P2;durP2;ratioP2
22949;SDS011;11641;51.018;4.474;2023-04-02T00:07:54;18.02;;;13.05;;
22949;SDS011;11641;51.018;4.474;2023-04-02T00:10:48;15.30;;;11.90;;
22949;SDS011;11641;51.018;4.474;2023-04-02T00:15:49;13.80;;;10.57;;
22949;SDS011;11641;51.018;4.474;2023-04-02T00:18:22;11.93;;;9.52;;
22949;SDS011;11641;51.018;4.474;2023-04-02T00:23:39;16.88;;;10.63;;
22949;SDS011;11641;51.018;4.474;2023-04-02T00:28:50;15.90;;;10.98;;
22949;SDS011;11641;51.018;4.474;2023-04-02T00:31:17;16.48;;;11.10;;
22949;SDS011;11641;51.018;4.474;2023-04-02T00:33:44;16.38;;;11.43;;
22949;SDS011;11641;51.018;4.474;2023-04-02T00:36:10;16.33;;;11.50;;
22949;SDS011;11641;51.018;4.474;2023-04-02T00:38:36;12.65;;;9.35;;
22949;SDS011;11641;51.018;4.474;2023-04-02T00:41:05;14.73;;;11.45;;
22949;SDS011;11641;51.018;4.474;2023-04-02T00:43:34;14.70;;;10.55;;
22949;SDS011;11641;51.018;4.474;2023-04-02T00:46:02;17.92;;;11.90;;
22949;SDS011;11641;51.018;4.474;2023-04-02T00:51:35;15.27;;;11.30;;
22949;SDS011;11641;51.018;4.474;2023-04-02T00:54:24;17.52;;;12.20;;
22949;SDS011;11641;51.018;4.474;2023-04-02T00:56:54;16.77;;;12.32;;
22949;SDS011;11641;51.018;4.474;2023-04-02T01:02:18;16.42;;;12.32;;
22949;SDS011;11641;51.018;4.474;2023-04-02T01:08:00;16.40;;;12.70;;
22949;SDS011;11641;51.018;4.474;2023-04-02T01:18:56;13.93;;;10.20;;
22949;SDS011;11641;51.018;4.474;2023-04-02T01:24:28;13.43;;;9.88;;
22949;SDS011;11641;51.018;4.474;2023-04-02T01:29:39;16.05;;;10.48;;
22949;SDS011;11641;51.018;4.474;2023-04-02T01:32:29;13.65;;;10.50;;
22949;SDS011;11641;51.018;4.474;2023-04-02T01:34:55;14.45;;;11.10;;
22949;SDS011;11641;51.018;4.474;2023-04-02T01:45:27;13.32;;;10.93;;
22949;SDS011;11641;51.018;4.474;2023-04-02T01:47:54;15.38;;;11.68;;
22949;SDS011;11641;51.018;4.474;2023-04-02T01:50:26;15.30;;;11.13;;
22949;SDS011;11641;51.018;4.474;2023-04-02T01:52:56;14.75;;;11.77;;
22949;SDS011;11641;51.018;4.474;2023-04-02T01:58:09;17.38;;;12.07;;
22949;SDS011;11641;51.018;4.474;2023-04-02T02:00:36;15.88;;;11.63;;
22949;SDS011;11641;51.018;4.474;2023-04-02T02:03:09;17.38;;;13.25;;
22949;SDS011;11641;51.018;4.474;2023-04-02T02:05:38;18.33;;;13.13;;
22949;SDS011;11641;51.018;4.474;2023-04-02T02:08:05;14.65;;;11.02;;
22949;SDS011;11641;51.018;4.474;2023-04-02T02:10:35;15.20;;;11.70;;
22949;SDS011;11641;51.018;4.474;2023-04-02T02:13:03;17.52;;;13.32;;
22949;SDS011;11641;51.018;4.474;2023-04-02T02:15:32;15.52;;;12.07;;
22949;SDS011;11641;51.018;4.474;2023-04-02T02:18:01;16.95;;;11.73;;
22949;SDS011;11641;51.018;4.474;2023-04-02T02:20:29;16.08;;;12.73;;
22949;SDS011;11641;51.018;4.474;2023-04-02T02:22:57;15.60;;;11.73;;
22949;SDS011;11641;51.018;4.474;2023-04-02T02:25:27;17.63;;;12.70;;
22949;SDS011;11641;51.018;4.474;2023-04-02T02:30:44;16.70;;;12.38;;
22949;SDS011;11641;51.018;4.474;2023-04-02T02:33:23;18.90;;;12.52;;
22949;SDS011;11641;51.018;4.474;2023-04-02T02:46:52;19.00;;;13.20;;
22949;SDS011;11641;51.018;4.474;2023-04-02T02:49:25;17.85;;;13.25;;
22949;SDS011;11641;51.018;4.474;2023-04-02T02:51:59;17.55;;;13.52;;
22949;SDS011;11641;51.018;4.474;2023-04-02T02:54:28;21.20;;;14.73;;
22949;SDS011;11641;51.018;4.474;2023-04-02T02:56:56;20.27;;;13.82;;
22949;SDS011;11641;51.018;4.474;2023-04-02T02:59:26;18.80;;;13.45;;
22949;SDS011;11641;51.018;4.474;2023-04-02T03:01:53;17.05;;;14.07;;
22949;SDS011;11641;51.018;4.474;2023-04-02T03:04:20;18.65;;;13.77;;
22949;SDS011;11641;51.018;4.474;2023-04-02T03:06:48;19.15;;;14.00;;
22949;SDS011;11641;51.018;4.474;2023-04-02T03:09:21;17.67;;;14.02;;
22949;SDS011;11641;51.018;4.474;2023-04-02T03:14:42;19.23;;;13.70;;
22949;SDS011;11641;51.018;4.474;2023-04-02T03:17:11;18.90;;;13.90;;
22949;SDS011;11641;51.018;4.474;2023-04-02T03:22:55;18.90;;;13.82;;
22949;SDS011;11641;51.018;4.474;2023-04-02T03:25:34;19.27;;;14.30;;
22949;SDS011;11641;51.018;4.474;2023-04-02T03:28:15;17.73;;;14.15;;
22949;SDS011;11641;51.018;4.474;2023-04-02T03:38:43;20.45;;;15.13;;
22949;SDS011;11641;51.018;4.474;2023-04-02T03:41:17;19.27;;;15.27;;
22949;SDS011;11641;51.018;4.474;2023-04-02T03:43:55;21.77;;;15.13;;
22949;SDS011;11641;51.018;4.474;2023-04-02T03:49:12;18.80;;;15.27;;
22949;SDS011;11641;51.018;4.474;2023-04-02T03:51:49;22.48;;;15.57;;
22949;SDS011;11641;51.018;4.474;2023-04-02T03:54:23;24.92;;;15.55;;
22949;SDS011;11641;51.018;4.474;2023-04-02T03:56:49;23.20;;;15.98;;
22949;SDS011;11641;51.018;4.474;2023-04-02T04:02:09;20.63;;;16.90;;
22949;SDS011;11641;51.018;4.474;2023-04-02T04:04:38;22.38;;;16.67;;
22949;SDS011;11641;51.018;4.474;2023-04-02T04:07:08;21.08;;;16.17;;
22949;SDS011;11641;51.018;4.474;2023-04-02T04:09:40;25.63;;;17.17;;
22949;SDS011;11641;51.018;4.474;2023-04-02T04:14:56;21.30;;;16.83;;
22949;SDS011;11641;51.018;4.474;2023-04-02T04:17:31;22.98;;;16.75;;
22949;SDS011;11641;51.018;4.474;2023-04-02T04:20:43;24.00;;;17.17;;
22949;SDS011;11641;51.018;4.474;2023-04-02T04:23:26;23.55;;;16.30;;
22949;SDS011;11641;51.018;4.474;2023-04-02T04:31:32;31.10;;;17.98;;
22949;SDS011;11641;51.018;4.474;2023-04-02T04:34:13;25.02;;;16.70;;
22949;SDS011;11641;51.018;4.474;2023-04-02T04:36:50;27.13;;;17.95;;
22949;SDS011;11641;51.018;4.474;2023-04-02T04:39:26;25.20;;;16.52;;
22949;SDS011;11641;51.018;4.474;2023-04-02T04:42:00;29.10;;;17.45;;
22949;SDS011;11641;51.018;4.474;2023-04-02T04:47:19;27.02;;;18.77;;
22949;SDS011;11641;51.018;4.474;2023-04-02T04:50:02;28.85;;;18.48;;
22949;SDS011;11641;51.018;4.474;2023-04-02T04:52:38;29.80;;;18.08;;
22949;SDS011;11641;51.018;4.474;2023-04-02T04:55:21;26.42;;;18.83;;
22949;SDS011;11641;51.018;4.474;2023-04-02T04:57:48;27.67;;;18.85;;
22949;SDS011;11641;51.018;4.474;2023-04-02T05:05:25;20.98;;;16.05;;
22949;SDS011;11641;51.018;4.474;2023-04-02T05:07:55;21.25;;;15.77;;
22949;SDS011;11641;51.018;4.474;2023-04-02T05:10:29;19.80;;;15.75;;
22949;SDS011;11641;51.018;4.474;2023-04-02T05:13:10;21.02;;;14.68;;
22949;SDS011;11641;51.018;4.474;2023-04-02T05:21:03;21.67;;;16.42;;
22949;SDS011;11641;51.018;4.474;2023-04-02T05:26:35;22.50;;;16.38;;
22949;SDS011;11641;51.018;4.474;2023-04-02T05:29:43;23.58;;;15.45;;
22949;SDS011;11641;51.018;4.474;2023-04-02T05:32:16;23.00;;;16.02;;
22949;SDS011;11641;51.018;4.474;2023-04-02T05:34:49;24.98;;;14.88;;
22949;SDS011;11641;51.018;4.474;2023-04-02T05:37:20;19.45;;;13.75;;
22949;SDS011;11641;51.018;4.474;2023-04-02T05:39:55;20.25;;;14.52;;
22949;SDS011;11641;51.018;4.474;2023-04-02T05:42:23;18.98;;;14.27;;
22949;SDS011;11641;51.018;4.474;2023-04-02T05:47:45;20.30;;;15.05;;
22949;SDS011;11641;51.018;4.474;2023-04-02T05:50:32;22.40;;;15.82;;
22949;SDS011;11641;51.018;4.474;2023-04-02T05:53:16;21.20;;;16.75;;
22949;SDS011;11641;51.018;4.474;2023-04-02T06:01:17;22.08;;;16.27;;
22949;SDS011;11641;51.018;4.474;2023-04-02T06:06:58;24.27;;;16.30;;
22949;SDS011;11641;51.018;4.474;2023-04-02T06:09:37;23.38;;;16.35;;
22949;SDS011;11641;51.018;4.474;2023-04-02T06:12:27;22.73;;;15.73;;
22949;SDS011;11641;51.018;4.474;2023-04-02T06:14:56;20.92;;;15.68;;
22949;SDS011;11641;51.018;4.474;2023-04-02T06:17:22;21.45;;;15.25;;
22949;SDS011;11641;51.018;4.474;2023-04-02T06:19:48;17.73;;;14.52;;
22949;SDS011;11641;51.018;4.474;2023-04-02T06:27:42;20.27;;;13.68;;
22949;SDS011;11641;51.018;4.474;2023-04-02T06:30:23;16.17;;;13.00;;
22949;SDS011;11641;51.018;4.474;2023-04-02T06:32:56;16.95;;;13.00;;
22949;SDS011;11641;51.018;4.474;2023-04-02T06:35:22;15.35;;;12.68;;
22949;SDS011;11641;51.018;4.474;2023-04-02T06:37:48;16.85;;;13.07;;
22949;SDS011;11641;51.018;4.474;2023-04-02T06:40:31;14.68;;;11.98;;
22949;SDS011;11641;51.018;4.474;2023-04-02T06:43:10;18.55;;;12.63;;
22949;SDS011;11641;51.018;4.474;2023-04-02T06:45:44;18.13;;;13.35;;
22949;SDS011;11641;51.018;4.474;2023-04-02T06:48:14;19.88;;;12.70;;
22949;SDS011;11641;51.018;4.474;2023-04-02T06:50:43;21.08;;;14.23;;
22949;SDS011;11641;51.018;4.474;2023-04-02T06:53:16;18.52;;;14.20;;
22949;SDS011;11641;51.018;4.474;2023-04-02T06:56:16;20.67;;;14.00;;
22949;SDS011;11641;51.018;4.474;2023-04-02T06:58:58;19.20;;;13.68;;
22949;SDS011;11641;51.018;4.474;2023-04-02T07:01:26;20.85;;;15.77;;
22949;SDS011;11641;51.018;4.474;2023-04-02T07:03:54;19.55;;;14.02;;
22949;SDS011;11641;51.018;4.474;2023-04-02T07:06:21;19.23;;;13.93;;
22949;SDS011;11641;51.018;4.474;2023-04-02T07:08:47;19.40;;;14.02;;
22949;SDS011;11641;51.018;4.474;2023-04-02T07:11:17;20.40;;;14.30;;
22949;SDS011;11641;51.018;4.474;2023-04-02T07:13:45;23.13;;;14.50;;
22949;SDS011;11641;51.018;4.474;2023-04-02T07:16:15;23.30;;;14.40;;
22949;SDS011;11641;51.018;4.474;2023-04-02T07:18:43;20.90;;;14.77;;
22949;SDS011;11641;51.018;4.474;2023-04-02T07:21:09;23.08;;;14.98;;
22949;SDS011;11641;51.018;4.474;2023-04-02T07:23:35;19.63;;;14.20;;
22949;SDS011;11641;51.018;4.474;2023-04-02T07:26:04;19.15;;;13.75;;
22949;SDS011;11641;51.018;4.474;2023-04-02T07:28:33;21.58;;;13.35;;
22949;SDS011;11641;51.018;4.474;2023-04-02T07:30:59;18.05;;;13.85;;
22949;SDS011;11641;51.018;4.474;2023-04-02T07:33:26;17.67;;;13.38;;
22949;SDS011;11641;51.018;4.474;2023-04-02T07:35:54;19.55;;;12.88;;
22949;SDS011;11641;51.018;4.474;2023-04-02T07:38:21;19.77;;;12.95;;
22949;SDS011;11641;51.018;4.474;2023-04-02T07:40:47;18.65;;;12.77;;
22949;SDS011;11641;51.018;4.474;2023-04-02T07:43:12;18.83;;;12.93;;
22949;SDS011;11641;51.018;4.474;2023-04-02T07:45:38;16.45;;;12.30;;
22949;SDS011;11641;51.018;4.474;2023-04-02T07:48:08;17.23;;;12.88;;
22949;SDS011;11641;51.018;4.474;2023-04-02T07:50:36;17.92;;;13.25;;
22949;SDS011;11641;51.018;4.474;2023-04-02T07:53:02;21.30;;;14.18;;
22949;SDS011;11641;51.018;4.474;2023-04-02T07:55:31;21.13;;;14.57;;
22949;SDS011;11641;51.018;4.474;2023-04-02T07:57:57;22.08;;;14.18;;
22949;SDS011;11641;51.018;4.474;2023-04-02T08:00:24;19.00;;;13.90;;
22949;SDS011;11641;51.018;4.474;2023-04-02T08:02:53;25.52;;;15.23;;
22949;SDS011;11641;51.018;4.474;2023-04-02T08:05:19;25.75;;;14.75;;
22949;SDS011;11641;51.018;4.474;2023-04-02T08:07:54;20.70;;;15.75;;
22949;SDS011;11641;51.018;4.474;2023-04-02T08:10:23;23.67;;;16.38;;
22949;SDS011;11641;51.018;4.474;2023-04-02T08:12:49;26.08;;;16.13;;
22949;SDS011;11641;51.018;4.474;2023-04-02T08:15:14;20.30;;;14.80;;
22949;SDS011;11641;51.018;4.474;2023-04-02T08:17:41;22.58;;;14.93;;
22949;SDS011;11641;51.018;4.474;2023-04-02T08:20:08;22.88;;;14.90;;
22949;SDS011;11641;51.018;4.474;2023-04-02T08:22:45;22.88;;;14.68;;
22949;SDS011;11641;51.018;4.474;2023-04-02T08:25:11;18.17;;;13.85;;
22949;SDS011;11641;51.018;4.474;2023-04-02T08:27:37;19.38;;;14.25;;
22949;SDS011;11641;51.018;4.474;2023-04-02T08:30:08;19.55;;;12.65;;
22949;SDS011;11641;51.018;4.474;2023-04-02T08:32:36;20.42;;;14.18;;
22949;SDS011;11641;51.018;4.474;2023-04-02T08:35:05;20.33;;;14.10;;
22949;SDS011;11641;51.018;4.474;2023-04-02T08:37:33;22.38;;;13.50;;
22949;SDS011;11641;51.018;4.474;2023-04-02T08:39:59;21.55;;;13.70;;
22949;SDS011;11641;51.018;4.474;2023-04-02T08:42:31;20.58;;;13.85;;
22949;SDS011;11641;51.018;4.474;2023-04-02T08:45:17;21.10;;;14.02;;
22949;SDS011;11641;51.018;4.474;2023-04-02T08:53:12;21.10;;;14.35;;
22949;SDS011;11641;51.018;4.474;2023-04-02T08:58:56;19.42;;;14.43;;
22949;SDS011;11641;51.018;4.474;2023-04-02T09:01:33;20.63;;;13.60;;
22949;SDS011;11641;51.018;4.474;2023-04-02T09:06:39;18.13;;;11.60;;
22949;SDS011;11641;51.018;4.474;2023-04-02T09:09:06;14.02;;;10.77;;
22949;SDS011;11641;51.018;4.474;2023-04-02T09:14:44;12.15;;;9.02;;
22949;SDS011;11641;51.018;4.474;2023-04-02T09:17:17;12.85;;;9.63;;
22949;SDS011;11641;51.018;4.474;2023-04-02T09:19:51;15.75;;;9.90;;
22949;SDS011;11641;51.018;4.474;2023-04-02T09:22:46;13.18;;;9.05;;
22949;SDS011;11641;51.018;4.474;2023-04-02T09:25:20;11.20;;;8.40;;
22949;SDS011;11641;51.018;4.474;2023-04-02T09:28:00;13.48;;;8.27;;
22949;SDS011;11641;51.018;4.474;2023-04-02T09:33:43;8.75;;;7.40;;
22949;SDS011;11641;51.018;4.474;2023-04-02T09:36:18;10.35;;;7.72;;
22949;SDS011;11641;51.018;4.474;2023-04-02T09:38:58;10.90;;;7.43;;
22949;SDS011;11641;51.018;4.474;2023-04-02T09:41:30;9.57;;;7.75;;
22949;SDS011;11641;51.018;4.474;2023-04-02T09:46:49;9.57;;;7.07;;
22949;SDS011;11641;51.018;4.474;2023-04-02T09:49:33;11.45;;;7.35;;
22949;SDS011;11641;51.018;4.474;2023-04-02T09:52:10;11.48;;;7.10;;
22949;SDS011;11641;51.018;4.474;2023-04-02T09:57:39;5.72;;;3.75;;
22949;SDS011;11641;51.018;4.474;2023-04-02T10:03:04;5.57;;;3.63;;
22949;SDS011;11641;51.018;4.474;2023-04-02T10:06:02;6.03;;;3.40;;
22949;SDS011;11641;51.018;4.474;2023-04-02T10:08:30;5.97;;;4.22;;
22949;SDS011;11641;51.018;4.474;2023-04-02T10:10:58;5.90;;;3.58;;
22949;SDS011;11641;51.018;4.474;2023-04-02T10:16:16;5.87;;;3.70;;
22949;SDS011;11641;51.018;4.474;2023-04-02T10:18:48;6.60;;;3.55;;
22949;SDS011;11641;51.018;4.474;2023-04-02T10:21:18;8.85;;;3.70;;
22949;SDS011;11641;51.018;4.474;2023-04-02T10:23:49;4.47;;;3.40;;
22949;SDS011;11641;51.018;4.474;2023-04-02T10:31:43;7.22;;;4.47;;
22949;SDS011;11641;51.018;4.474;2023-04-02T10:34:24;7.35;;;5.30;;
22949;SDS011;11641;51.018;4.474;2023-04-02T10:36:58;9.63;;;5.50;;
22949;SDS011;11641;51.018;4.474;2023-04-02T10:39:36;8.35;;;5.72;;
22949;SDS011;11641;51.018;4.474;2023-04-02T10:48:27;5.72;;;3.75;;
22949;SDS011;11641;51.018;4.474;2023-04-02T10:50:59;6.85;;;3.95;;
22949;SDS011;11641;51.018;4.474;2023-04-02T10:53:32;8.48;;;4.05;;
22949;SDS011;11641;51.018;4.474;2023-04-02T10:56:01;7.22;;;3.50;;
22949;SDS011;11641;51.018;4.474;2023-04-02T10:58:32;4.63;;;2.95;;
22949;SDS011;11641;51.018;4.474;2023-04-02T11:04:15;6.15;;;3.70;;
22949;SDS011;11641;51.018;4.474;2023-04-02T11:06:40;8.43;;;4.07;;
22949;SDS011;11641;51.018;4.474;2023-04-02T11:09:15;5.65;;;3.40;;
22949;SDS011;11641;51.018;4.474;2023-04-02T11:11:46;7.85;;;3.45;;
22949;SDS011;11641;51.018;4.474;2023-04-02T11:16:52;5.13;;;3.20;;
22949;SDS011;11641;51.018;4.474;2023-04-02T11:21:57;5.97;;;3.40;;
22949;SDS011;11641;51.018;4.474;2023-04-02T11:32:48;6.30;;;3.10;;
22949;SDS011;11641;51.018;4.474;2023-04-02T11:38:02;4.55;;;3.30;;
22949;SDS011;11641;51.018;4.474;2023-04-02T11:45:57;6.80;;;3.42;;
22949;SDS011;11641;51.018;4.474;2023-04-02T11:48:26;6.53;;;3.40;;
22949;SDS011;11641;51.018;4.474;2023-04-02T11:50:52;7.18;;;2.78;;
22949;SDS011;11641;51.018;4.474;2023-04-02T11:53:21;6.47;;;2.72;;
22949;SDS011;11641;51.018;4.474;2023-04-02T11:56:05;8.25;;;3.08;;
22949;SDS011;11641;51.018;4.474;2023-04-02T12:09:54;4.60;;;2.30;;
22949;SDS011;11641;51.018;4.474;2023-04-02T12:12:25;5.03;;;2.75;;
22949;SDS011;11641;51.018;4.474;2023-04-02T12:17:29;4.82;;;2.13;;
22949;SDS011;11641;51.018;4.474;2023-04-02T12:20:00;4.25;;;2.25;;
22949;SDS011;11641;51.018;4.474;2023-04-02T12:22:30;4.20;;;2.17;;
22949;SDS011;11641;51.018;4.474;2023-04-02T12:25:02;6.25;;;2.05;;
22949;SDS011;11641;51.018;4.474;2023-04-02T12:27:48;4.45;;;2.20;;
22949;SDS011;11641;51.018;4.474;2023-04-02T12:30:33;4.80;;;2.80;;
22949;SDS011;11641;51.018;4.474;2023-04-02T12:35:47;6.28;;;3.20;;
22949;SDS011;11641;51.018;4.474;2023-04-02T12:38:27;8.23;;;2.95;;
22949;SDS011;11641;51.018;4.474;2023-04-02T12:40:58;4.93;;;3.10;;
22949;SDS011;11641;51.018;4.474;2023-04-02T12:43:43;6.35;;;2.55;;
22949;SDS011;11641;51.018;4.474;2023-04-02T12:46:08;8.30;;;2.90;;
22949;SDS011;11641;51.018;4.474;2023-04-02T12:48:38;6.05;;;2.50;;
22949;SDS011;11641;51.018;4.474;2023-04-02T12:51:05;4.55;;;2.40;;
22949;SDS011;11641;51.018;4.474;2023-04-02T12:53:33;7.95;;;2.97;;
22949;SDS011;11641;51.018;4.474;2023-04-02T12:56:06;4.93;;;2.63;;
22949;SDS011;11641;51.018;4.474;2023-04-02T12:58:42;5.70;;;2.72;;
22949;SDS011;11641;51.018;4.474;2023-04-02T13:12:25;5.40;;;2.40;;
22949;SDS011;11641;51.018;4.474;2023-04-02T13:14:58;4.70;;;2.08;;
22949;SDS011;11641;51.018;4.474;2023-04-02T13:28:32;4.43;;;2.42;;
22949;SDS011;11641;51.018;4.474;2023-04-02T13:31:01;6.18;;;2.28;;
22949;SDS011;11641;51.018;4.474;2023-04-02T13:33:29;4.72;;;1.92;;
22949;SDS011;11641;51.018;4.474;2023-04-02T13:35:55;4.40;;;2.08;;
22949;SDS011;11641;51.018;4.474;2023-04-02T13:38:23;4.35;;;2.20;;
22949;SDS011;11641;51.018;4.474;2023-04-02T13:40:51;4.28;;;2.20;;
22949;SDS011;11641;51.018;4.474;2023-04-02T13:43:17;5.45;;;2.03;;
22949;SDS011;11641;51.018;4.474;2023-04-02T13:45:48;4.13;;;1.88;;
22949;SDS011;11641;51.018;4.474;2023-04-02T13:48:16;6.03;;;2.97;;
22949;SDS011;11641;51.018;4.474;2023-04-02T13:50:42;3.42;;;2.33;;
22949;SDS011;11641;51.018;4.474;2023-04-02T13:53:29;4.30;;;1.90;;
22949;SDS011;11641;51.018;4.474;2023-04-02T13:56:02;4.10;;;2.05;;
22949;SDS011;11641;51.018;4.474;2023-04-02T13:58:27;5.00;;;1.92;;
22949;SDS011;11641;51.018;4.474;2023-04-02T14:00:55;3.63;;;2.00;;
22949;SDS011;11641;51.018;4.474;2023-04-02T14:03:24;5.22;;;2.05;;
22949;SDS011;11641;51.018;4.474;2023-04-02T14:09:14;3.67;;;2.05;;
22949;SDS011;11641;51.018;4.474;2023-04-02T14:20:08;3.92;;;2.28;;
22949;SDS011;11641;51.018;4.474;2023-04-02T14:30:58;5.05;;;2.97;;
22949;SDS011;11641;51.018;4.474;2023-04-02T14:45:06;5.00;;;2.95;;
22949;SDS011;11641;51.018;4.474;2023-04-02T14:47:46;5.03;;;3.05;;
22949;SDS011;11641;51.018;4.474;2023-04-02T14:50:23;8.57;;;3.35;;
22949;SDS011;11641;51.018;4.474;2023-04-02T14:52:54;6.82;;;3.03;;
22949;SDS011;11641;51.018;4.474;2023-04-02T14:55:34;5.55;;;3.08;;
22949;SDS011;11641;51.018;4.474;2023-04-02T14:58:55;7.82;;;3.10;;
22949;SDS011;11641;51.018;4.474;2023-04-02T15:01:05;5.57;;;3.03;;
22949;SDS011;11641;51.018;4.474;2023-04-02T15:03:42;6.72;;;3.20;;
22949;SDS011;11641;51.018;4.474;2023-04-02T15:06:22;4.40;;;2.83;;
22949;SDS011;11641;51.018;4.474;2023-04-02T15:11:51;10.40;;;3.50;;
22949;SDS011;11641;51.018;4.474;2023-04-02T15:14:30;6.90;;;2.53;;
22949;SDS011;11641;51.018;4.474;2023-04-02T15:17:05;4.93;;;2.40;;
22949;SDS011;11641;51.018;4.474;2023-04-02T15:19:34;6.18;;;3.05;;
22949;SDS011;11641;51.018;4.474;2023-04-02T15:27:17;5.70;;;2.67;;
22949;SDS011;11641;51.018;4.474;2023-04-02T15:30:31;6.38;;;2.83;;
22949;SDS011;11641;51.018;4.474;2023-04-02T15:35:49;3.90;;;1.85;;
22949;SDS011;11641;51.018;4.474;2023-04-02T15:38:40;6.00;;;2.35;;
22949;SDS011;11641;51.018;4.474;2023-04-02T15:41:29;4.45;;;2.03;;
22949;SDS011;11641;51.018;4.474;2023-04-02T15:46:57;3.40;;;1.70;;
22949;SDS011;11641;51.018;4.474;2023-04-02T15:49:42;3.28;;;1.88;;
22949;SDS011;11641;51.018;4.474;2023-04-02T15:52:14;3.70;;;1.50;;
22949;SDS011;11641;51.018;4.474;2023-04-02T16:00:48;2.45;;;1.30;;
22949;SDS011;11641;51.018;4.474;2023-04-02T16:11:14;3.17;;;1.40;;
22949;SDS011;11641;51.018;4.474;2023-04-02T16:13:40;2.97;;;1.38;;
22949;SDS011;11641;51.018;4.474;2023-04-02T16:21:36;3.80;;;1.60;;
22949;SDS011;11641;51.018;4.474;2023-04-02T16:24:08;3.22;;;1.60;;
22949;SDS011;11641;51.018;4.474;2023-04-02T16:29:16;4.40;;;1.27;;
22949;SDS011;11641;51.018;4.474;2023-04-02T16:34:55;2.75;;;1.45;;
22949;SDS011;11641;51.018;4.474;2023-04-02T16:37:37;2.97;;;1.50;;
22949;SDS011;11641;51.018;4.474;2023-04-02T16:51:44;5.93;;;1.80;;
22949;SDS011;11641;51.018;4.474;2023-04-02T16:54:29;4.53;;;1.60;;
22949;SDS011;11641;51.018;4.474;2023-04-02T16:57:08;3.00;;;1.70;;
22949;SDS011;11641;51.018;4.474;2023-04-02T17:00:01;2.50;;;1.50;;
22949;SDS011;11641;51.018;4.474;2023-04-02T17:13:32;4.70;;;2.28;;
22949;SDS011;11641;51.018;4.474;2023-04-02T17:18:30;3.30;;;1.50;;
22949;SDS011;11641;51.018;4.474;2023-04-02T17:21:00;4.03;;;1.90;;
22949;SDS011;11641;51.018;4.474;2023-04-02T17:23:37;2.93;;;1.50;;
22949;SDS011;11641;51.018;4.474;2023-04-02T17:26:18;5.97;;;1.50;;
22949;SDS011;11641;51.018;4.474;2023-04-02T17:28:47;3.47;;;1.65;;
22949;SDS011;11641;51.018;4.474;2023-04-02T17:31:27;3.42;;;1.42;;
22949;SDS011;11641;51.018;4.474;2023-04-02T17:33:59;1.90;;;1.23;;
22949;SDS011;11641;51.018;4.474;2023-04-02T17:36:36;3.97;;;1.58;;
22949;SDS011;11641;51.018;4.474;2023-04-02T17:52:50;6.07;;;1.80;;
22949;SDS011;11641;51.018;4.474;2023-04-02T17:55:28;4.05;;;1.98;;
22949;SDS011;11641;51.018;4.474;2023-04-02T17:58:27;3.90;;;1.58;;
22949;SDS011;11641;51.018;4.474;2023-04-02T18:01:31;5.65;;;2.15;;
22949;SDS011;11641;51.018;4.474;2023-04-02T18:07:06;3.22;;;1.77;;
22949;SDS011;11641;51.018;4.474;2023-04-02T18:10:06;4.15;;;2.10;;
22949;SDS011;11641;51.018;4.474;2023-04-02T18:12:48;4.03;;;2.03;;
22949;SDS011;11641;51.018;4.474;2023-04-02T18:18:18;4.88;;;1.75;;
22949;SDS011;11641;51.018;4.474;2023-04-02T18:21:17;4.22;;;1.90;;
22949;SDS011;11641;51.018;4.474;2023-04-02T18:34:47;4.07;;;2.25;;
22949;SDS011;11641;51.018;4.474;2023-04-02T18:45:14;6.55;;;2.65;;
22949;SDS011;11641;51.018;4.474;2023-04-02T18:50:30;4.97;;;2.63;;
22949;SDS011;11641;51.018;4.474;2023-04-02T18:53:20;10.25;;;3.20;;
22949;SDS011;11641;51.018;4.474;2023-04-02T18:56:00;4.28;;;2.38;;
22949;SDS011;11641;51.018;4.474;2023-04-02T19:01:14;5.68;;;2.47;;
22949;SDS011;11641;51.018;4.474;2023-04-02T19:03:45;7.22;;;3.08;;
22949;SDS011;11641;51.018;4.474;2023-04-02T19:06:28;7.63;;;3.05;;
22949;SDS011;11641;51.018;4.474;2023-04-02T19:14:20;7.65;;;3.28;;
22949;SDS011;11641;51.018;4.474;2023-04-02T19:19:22;4.85;;;2.67;;
22949;SDS011;11641;51.018;4.474;2023-04-02T19:24:33;17.63;;;9.82;;
22949;SDS011;11641;51.018;4.474;2023-04-02T19:32:23;11.88;;;5.47;;
22949;SDS011;11641;51.018;4.474;2023-04-02T19:35:35;8.80;;;4.53;;
22949;SDS011;11641;51.018;4.474;2023-04-02T19:41:02;9.25;;;4.97;;
22949;SDS011;11641;51.018;4.474;2023-04-02T19:43:51;7.75;;;5.00;;
22949;SDS011;11641;51.018;4.474;2023-04-02T19:46:17;10.38;;;4.57;;
22949;SDS011;11641;51.018;4.474;2023-04-02T19:48:48;7.03;;;4.50;;
22949;SDS011;11641;51.018;4.474;2023-04-02T19:51:17;9.00;;;4.80;;
22949;SDS011;11641;51.018;4.474;2023-04-02T19:53:43;14.60;;;5.30;;
22949;SDS011;11641;51.018;4.474;2023-04-02T19:56:08;7.43;;;4.95;;
22949;SDS011;11641;51.018;4.474;2023-04-02T19:58:34;10.30;;;4.85;;
22949;SDS011;11641;51.018;4.474;2023-04-02T20:01:00;9.32;;;5.47;;
22949;SDS011;11641;51.018;4.474;2023-04-02T20:03:26;10.25;;;5.38;;
22949;SDS011;11641;51.018;4.474;2023-04-02T20:05:55;9.68;;;5.70;;
22949;SDS011;11641;51.018;4.474;2023-04-02T20:08:23;10.43;;;5.53;;
22949;SDS011;11641;51.018;4.474;2023-04-02T20:10:49;9.52;;;5.97;;
22949;SDS011;11641;51.018;4.474;2023-04-02T20:13:17;8.18;;;5.78;;
22949;SDS011;11641;51.018;4.474;2023-04-02T20:15:45;10.18;;;6.28;;
22949;SDS011;11641;51.018;4.474;2023-04-02T20:18:11;11.13;;;6.15;;
22949;SDS011;11641;51.018;4.474;2023-04-02T20:20:37;13.18;;;6.90;;
22949;SDS011;11641;51.018;4.474;2023-04-02T20:23:03;11.65;;;7.57;;
22949;SDS011;11641;51.018;4.474;2023-04-02T20:25:29;11.48;;;7.97;;
22949;SDS011;11641;51.018;4.474;2023-04-02T20:27:57;15.27;;;8.32;;
22949;SDS011;11641;51.018;4.474;2023-04-02T20:30:24;14.77;;;8.18;;
22949;SDS011;11641;51.018;4.474;2023-04-02T20:32:50;14.77;;;9.32;;
22949;SDS011;11641;51.018;4.474;2023-04-02T20:35:16;16.27;;;9.65;;
22949;SDS011;11641;51.018;4.474;2023-04-02T20:37:41;16.33;;;10.02;;
22949;SDS011;11641;51.018;4.474;2023-04-02T20:40:07;16.00;;;9.82;;
22949;SDS011;11641;51.018;4.474;2023-04-02T20:42:34;16.65;;;10.20;;
22949;SDS011;11641;51.018;4.474;2023-04-02T20:44:59;16.80;;;10.55;;
22949;SDS011;11641;51.018;4.474;2023-04-02T20:47:25;15.80;;;10.50;;
22949;SDS011;11641;51.018;4.474;2023-04-02T20:49:51;16.08;;;10.40;;
22949;SDS011;11641;51.018;4.474;2023-04-02T20:52:17;15.93;;;10.38;;
22949;SDS011;11641;51.018;4.474;2023-04-02T20:54:42;15.63;;;10.38;;
22949;SDS011;11641;51.018;4.474;2023-04-02T20:57:08;17.60;;;10.40;;
22949;SDS011;11641;51.018;4.474;2023-04-02T20:59:33;20.15;;;10.85;;
22949;SDS011;11641;51.018;4.474;2023-04-02T21:01:59;20.88;;;10.52;;
22949;SDS011;11641;51.018;4.474;2023-04-02T21:04:26;14.10;;;9.70;;
22949;SDS011;11641;51.018;4.474;2023-04-02T21:06:51;16.17;;;10.13;;
22949;SDS011;11641;51.018;4.474;2023-04-02T21:09:21;15.25;;;9.30;;
22949;SDS011;11641;51.018;4.474;2023-04-02T21:11:47;14.85;;;9.07;;
22949;SDS011;11641;51.018;4.474;2023-04-02T21:14:13;14.45;;;8.20;;
22949;SDS011;11641;51.018;4.474;2023-04-02T21:16:39;13.68;;;8.82;;
22949;SDS011;11641;51.018;4.474;2023-04-02T21:19:06;13.80;;;8.02;;
22949;SDS011;11641;51.018;4.474;2023-04-02T21:21:33;12.63;;;7.57;;
22949;SDS011;11641;51.018;4.474;2023-04-02T21:24:00;10.82;;;7.75;;
22949;SDS011;11641;51.018;4.474;2023-04-02T21:26:29;14.50;;;8.57;;
22949;SDS011;11641;51.018;4.474;2023-04-02T21:28:56;11.60;;;8.15;;
22949;SDS011;11641;51.018;4.474;2023-04-02T21:31:27;13.52;;;9.13;;